sensor_id;sensor_type;location;lat;lon;timestamp;temperature;humidity
40696;DHT22;40425;51.102;17.208;2023-01-15T00:04:51;8.80;99.90
40696;DHT22;40425;51.102;17.208;2023-01-15T00:09:52;8.70;99.90
40696;DHT22;40425;51.102;17.208;2023-01-15T00:14:53;8.80;99.90
40696;DHT22;40425;51.102;17.208;2023-01-15T00:19:54;8.80;99.90
40696;DHT22;40425;51.102;17.208;2023-01-15T00:24:54;8.80;99.90
40696;DHT22;40425;51.102;17.208;2023-01-15T00:30:15;8.90;99.90
40696;DHT22;40425;51.102;17.208;2023-01-15T00:35:18;8.80;99.90
40696;DHT22;40425;51.102;17.208;2023-01-15T00:40:20;8.80;99.90
40696;DHT22;40425;51.102;17.208;2023-01-15T00:45:21;8.80;99.90
40696;DHT22;40425;51.102;17.208;2023-01-15T00:50:22;8.80;99.90
40696;DHT22;40425;51.102;17.208;2023-01-15T00:55:23;8.90;99.90
40696;DHT22;40425;51.102;17.208;2023-01-15T01:00:25;8.90;99.90
40696;DHT22;40425;51.102;17.208;2023-01-15T01:05:26;8.90;99.90
40696;DHT22;40425;51.102;17.208;2023-01-15T01:10:27;8.80;99.90
40696;DHT22;40425;51.102;17.208;2023-01-15T01:15:28;8.80;99.90
40696;DHT22;40425;51.102;17.208;2023-01-15T01:20:30;8.80;99.90
40696;DHT22;40425;51.102;17.208;2023-01-15T01:25:31;8.80;99.90
40696;DHT22;40425;51.102;17.208;2023-01-15T01:30:31;8.90;99.90
40696;DHT22;40425;51.102;17.208;2023-01-15T01:35:32;8.90;99.90
40696;DHT22;40425;51.102;17.208;2023-01-15T01:40:33;8.90;99.90
40696;DHT22;40425;51.102;17.208;2023-01-15T01:45:34;8.90;99.90
40696;DHT22;40425;51.102;17.208;2023-01-15T01:50:37;8.90;99.90
40696;DHT22;40425;51.102;17.208;2023-01-15T01:55:39;9.00;99.90
40696;DHT22;40425;51.102;17.208;2023-01-15T02:00:45;8.90;99.90
40696;DHT22;40425;51.102;17.208;2023-01-15T02:05:51;9.00;99.90
40696;DHT22;40425;51.102;17.208;2023-01-15T02:10:54;9.00;99.90
40696;DHT22;40425;51.102;17.208;2023-01-15T02:16:19;9.10;99.90
40696;DHT22;40425;51.102;17.208;2023-01-15T02:21:36;9.10;99.90
40696;DHT22;40425;51.102;17.208;2023-01-15T02:26:57;9.10;99.90
40696;DHT22;40425;51.102;17.208;2023-01-15T02:32:06;9.10;99.90
40696;DHT22;40425;51.102;17.208;2023-01-15T02:37:12;9.10;99.90
40696;DHT22;40425;51.102;17.208;2023-01-15T02:42:15;9.10;99.90
40696;DHT22;40425;51.102;17.208;2023-01-15T02:47:22;9.10;99.90
40696;DHT22;40425;51.102;17.208;2023-01-15T02:52:46;9.00;99.90
40696;DHT22;40425;51.102;17.208;2023-01-15T02:57:49;9.10;99.90
40696;DHT22;40425;51.102;17.208;2023-01-15T03:03:01;9.00;99.90
40696;DHT22;40425;51.102;17.208;2023-01-15T03:08:07;9.10;99.90
40696;DHT22;40425;51.102;17.208;2023-01-15T03:13:14;9.10;99.90
40696;DHT22;40425;51.102;17.208;2023-01-15T03:18:19;9.10;99.90
40696;DHT22;40425;51.102;17.208;2023-01-15T03:23:22;9.10;99.90
40696;DHT22;40425;51.102;17.208;2023-01-15T03:28:25;9.00;99.90
40696;DHT22;40425;51.102;17.208;2023-01-15T03:33:28;9.00;99.90
40696;DHT22;40425;51.102;17.208;2023-01-15T03:38:32;9.00;99.90
40696;DHT22;40425;51.102;17.208;2023-01-15T03:43:51;9.00;99.90
40696;DHT22;40425;51.102;17.208;2023-01-15T03:49:14;9.10;99.90
40696;DHT22;40425;51.102;17.208;2023-01-15T03:54:24;9.10;99.90
40696;DHT22;40425;51.102;17.208;2023-01-15T03:59:36;9.20;99.90
40696;DHT22;40425;51.102;17.208;2023-01-15T04:04:39;9.20;99.90
40696;DHT22;40425;51.102;17.208;2023-01-15T04:09:40;9.20;99.90
40696;DHT22;40425;51.102;17.208;2023-01-15T04:14:41;9.10;99.90
40696;DHT22;40425;51.102;17.208;2023-01-15T04:19:42;9.10;99.90
40696;DHT22;40425;51.102;17.208;2023-01-15T04:24:44;9.10;99.90
40696;DHT22;40425;51.102;17.208;2023-01-15T04:29:44;9.10;99.90
40696;DHT22;40425;51.102;17.208;2023-01-15T04:34:45;9.10;99.90
40696;DHT22;40425;51.102;17.208;2023-01-15T04:39:46;9.10;99.90
40696;DHT22;40425;51.102;17.208;2023-01-15T04:44:47;9.00;99.90
40696;DHT22;40425;51.102;17.208;2023-01-15T04:49:48;9.00;99.90
40696;DHT22;40425;51.102;17.208;2023-01-15T04:54:49;8.90;99.90
40696;DHT22;40425;51.102;17.208;2023-01-15T04:59:50;8.90;99.90
40696;DHT22;40425;51.102;17.208;2023-01-15T05:04:50;8.90;99.90
40696;DHT22;40425;51.102;17.208;2023-01-15T05:09:51;8.90;99.90
40696;DHT22;40425;51.102;17.208;2023-01-15T05:14:54;8.90;99.90
40696;DHT22;40425;51.102;17.208;2023-01-15T05:19:55;8.90;99.90
40696;DHT22;40425;51.102;17.208;2023-01-15T05:24:56;8.90;99.90
40696;DHT22;40425;51.102;17.208;2023-01-15T05:29:56;8.90;99.90
40696;DHT22;40425;51.102;17.208;2023-01-15T05:34:57;8.90;99.90
40696;DHT22;40425;51.102;17.208;2023-01-15T05:39:58;8.90;99.90
40696;DHT22;40425;51.102;17.208;2023-01-15T05:44:59;8.90;99.90
40696;DHT22;40425;51.102;17.208;2023-01-15T05:50:00;8.90;99.90
40696;DHT22;40425;51.102;17.208;2023-01-15T05:55:01;8.90;99.90
40696;DHT22;40425;51.102;17.208;2023-01-15T06:00:03;8.90;99.90
40696;DHT22;40425;51.102;17.208;2023-01-15T06:05:04;8.90;99.90
40696;DHT22;40425;51.102;17.208;2023-01-15T06:10:05;8.90;99.90
40696;DHT22;40425;51.102;17.208;2023-01-15T06:15:07;8.90;99.90
40696;DHT22;40425;51.102;17.208;2023-01-15T06:20:09;8.90;99.90
40696;DHT22;40425;51.102;17.208;2023-01-15T06:25:11;8.90;99.90
40696;DHT22;40425;51.102;17.208;2023-01-15T06:30:12;8.90;99.90
40696;DHT22;40425;51.102;17.208;2023-01-15T06:35:13;8.80;99.90
40696;DHT22;40425;51.102;17.208;2023-01-15T06:40:14;8.80;99.90
40696;DHT22;40425;51.102;17.208;2023-01-15T06:45:15;8.80;99.90
40696;DHT22;40425;51.102;17.208;2023-01-15T06:50:34;8.80;99.90
40696;DHT22;40425;51.102;17.208;2023-01-15T06:55:35;8.80;99.90
40696;DHT22;40425;51.102;17.208;2023-01-15T07:00:36;8.80;99.90
40696;DHT22;40425;51.102;17.208;2023-01-15T07:05:37;8.80;99.90
40696;DHT22;40425;51.102;17.208;2023-01-15T07:10:39;8.80;99.90
40696;DHT22;40425;51.102;17.208;2023-01-15T07:15:40;8.80;99.90
40696;DHT22;40425;51.102;17.208;2023-01-15T07:20:41;8.80;99.90
40696;DHT22;40425;51.102;17.208;2023-01-15T07:25:42;8.80;99.90
40696;DHT22;40425;51.102;17.208;2023-01-15T07:30:43;8.90;99.90
40696;DHT22;40425;51.102;17.208;2023-01-15T07:35:44;8.90;99.90
40696;DHT22;40425;51.102;17.208;2023-01-15T07:40:44;9.00;99.90
40696;DHT22;40425;51.102;17.208;2023-01-15T07:46:08;9.10;99.90
40696;DHT22;40425;51.102;17.208;2023-01-15T07:51:27;9.20;99.90
40696;DHT22;40425;51.102;17.208;2023-01-15T07:56:28;9.30;99.90
40696;DHT22;40425;51.102;17.208;2023-01-15T08:01:30;9.40;99.90
40696;DHT22;40425;51.102;17.208;2023-01-15T08:06:30;9.50;99.90
40696;DHT22;40425;51.102;17.208;2023-01-15T08:11:32;9.50;99.90
40696;DHT22;40425;51.102;17.208;2023-01-15T08:16:53;9.60;99.90
40696;DHT22;40425;51.102;17.208;2023-01-15T08:21:57;9.60;99.90
40696;DHT22;40425;51.102;17.208;2023-01-15T08:26:58;9.50;99.90
40696;DHT22;40425;51.102;17.208;2023-01-15T08:31:59;9.50;99.90
40696;DHT22;40425;51.102;17.208;2023-01-15T08:36:59;9.50;99.90
40696;DHT22;40425;51.102;17.208;2023-01-15T08:42:00;9.50;99.90
40696;DHT22;40425;51.102;17.208;2023-01-15T08:47:02;9.50;99.90
40696;DHT22;40425;51.102;17.208;2023-01-15T08:52:03;9.50;99.90
40696;DHT22;40425;51.102;17.208;2023-01-15T08:57:04;9.50;99.90
40696;DHT22;40425;51.102;17.208;2023-01-15T09:02:05;9.40;99.90
40696;DHT22;40425;51.102;17.208;2023-01-15T09:07:06;9.30;99.90
40696;DHT22;40425;51.102;17.208;2023-01-15T09:12:07;9.40;99.90
40696;DHT22;40425;51.102;17.208;2023-01-15T09:17:08;9.50;99.90
40696;DHT22;40425;51.102;17.208;2023-01-15T09:22:09;9.50;99.90
40696;DHT22;40425;51.102;17.208;2023-01-15T09:27:11;9.60;99.90
40696;DHT22;40425;51.102;17.208;2023-01-15T09:32:12;9.60;99.90
40696;DHT22;40425;51.102;17.208;2023-01-15T09:37:13;9.60;99.90
40696;DHT22;40425;51.102;17.208;2023-01-15T09:42:50;9.60;99.90
40696;DHT22;40425;51.102;17.208;2023-01-15T09:58:12;9.20;99.90
40696;DHT22;40425;51.102;17.208;2023-01-15T10:08:41;9.10;99.90
40696;DHT22;40425;51.102;17.208;2023-01-15T10:13:59;9.10;99.90
40696;DHT22;40425;51.102;17.208;2023-01-15T10:19:02;9.20;99.90
40696;DHT22;40425;51.102;17.208;2023-01-15T10:24:18;9.20;99.90
40696;DHT22;40425;51.102;17.208;2023-01-15T10:35:03;9.20;99.90
40696;DHT22;40425;51.102;17.208;2023-01-15T10:40:30;9.20;99.90
40696;DHT22;40425;51.102;17.208;2023-01-15T10:45:55;9.20;99.90
40696;DHT22;40425;51.102;17.208;2023-01-15T10:51:02;9.30;99.90
40696;DHT22;40425;51.102;17.208;2023-01-15T10:56:24;9.40;99.90
40696;DHT22;40425;51.102;17.208;2023-01-15T11:01:28;9.40;99.90
40696;DHT22;40425;51.102;17.208;2023-01-15T11:06:30;9.40;99.90
40696;DHT22;40425;51.102;17.208;2023-01-15T11:11:42;9.40;99.90
40696;DHT22;40425;51.102;17.208;2023-01-15T11:16:59;9.50;99.90
40696;DHT22;40425;51.102;17.208;2023-01-15T11:27:15;9.70;99.90
40696;DHT22;40425;51.102;17.208;2023-01-15T11:32:36;9.80;99.90
40696;DHT22;40425;51.102;17.208;2023-01-15T11:37:37;9.90;99.90
40696;DHT22;40425;51.102;17.208;2023-01-15T11:42:38;10.00;99.90
40696;DHT22;40425;51.102;17.208;2023-01-15T11:48:18;10.10;99.90
40696;DHT22;40425;51.102;17.208;2023-01-15T11:53:51;10.00;99.90
40696;DHT22;40425;51.102;17.208;2023-01-15T11:58:56;9.90;99.90
40696;DHT22;40425;51.102;17.208;2023-01-15T12:04:00;9.80;99.90
40696;DHT22;40425;51.102;17.208;2023-01-15T12:20:19;9.60;99.90
40696;DHT22;40425;51.102;17.208;2023-01-15T12:35:56;9.30;99.90
40696;DHT22;40425;51.102;17.208;2023-01-15T12:41:11;9.20;99.90
40696;DHT22;40425;51.102;17.208;2023-01-15T12:46:21;9.10;99.90
40696;DHT22;40425;51.102;17.208;2023-01-15T12:51:34;9.00;99.90
40696;DHT22;40425;51.102;17.208;2023-01-15T12:57:21;9.00;99.90
40696;DHT22;40425;51.102;17.208;2023-01-15T13:02:36;9.00;99.90
40696;DHT22;40425;51.102;17.208;2023-01-15T13:07:46;9.00;99.90
40696;DHT22;40425;51.102;17.208;2023-01-15T13:12:48;8.40;99.90
40696;DHT22;40425;51.102;17.208;2023-01-15T13:24:01;7.90;99.90
40696;DHT22;40425;51.102;17.208;2023-01-15T13:35:29;7.30;99.90
40696;DHT22;40425;51.102;17.208;2023-01-15T13:40:42;7.10;99.90
40696;DHT22;40425;51.102;17.208;2023-01-15T13:45:50;7.00;99.90
40696;DHT22;40425;51.102;17.208;2023-01-15T13:50:53;6.70;99.90
40696;DHT22;40425;51.102;17.208;2023-01-15T13:55:58;6.80;99.90
40696;DHT22;40425;51.102;17.208;2023-01-15T14:01:08;6.70;99.90
40696;DHT22;40425;51.102;17.208;2023-01-15T14:06:21;6.70;99.90
40696;DHT22;40425;51.102;17.208;2023-01-15T14:27:52;6.60;99.90
40696;DHT22;40425;51.102;17.208;2023-01-15T14:38:22;6.50;99.90
40696;DHT22;40425;51.102;17.208;2023-01-15T14:43:29;6.60;99.90
40696;DHT22;40425;51.102;17.208;2023-01-15T14:48:37;6.60;99.90
40696;DHT22;40425;51.102;17.208;2023-01-15T14:54:03;6.60;99.90
40696;DHT22;40425;51.102;17.208;2023-01-15T14:59:23;6.70;99.90
40696;DHT22;40425;51.102;17.208;2023-01-15T15:04:44;6.80;99.90
40696;DHT22;40425;51.102;17.208;2023-01-15T15:20:32;7.00;99.90
40696;DHT22;40425;51.102;17.208;2023-01-15T15:25:39;7.00;99.90
40696;DHT22;40425;51.102;17.208;2023-01-15T15:30:44;7.10;99.90
40696;DHT22;40425;51.102;17.208;2023-01-15T15:35:48;7.20;99.90
40696;DHT22;40425;51.102;17.208;2023-01-15T15:41:03;7.20;99.90
40696;DHT22;40425;51.102;17.208;2023-01-15T15:46:17;7.20;99.90
40696;DHT22;40425;51.102;17.208;2023-01-15T15:51:50;7.10;99.90
40696;DHT22;40425;51.102;17.208;2023-01-15T16:02:29;7.10;99.90
40696;DHT22;40425;51.102;17.208;2023-01-15T16:07:32;7.10;99.90
40696;DHT22;40425;51.102;17.208;2023-01-15T16:12:38;7.10;99.90
40696;DHT22;40425;51.102;17.208;2023-01-15T16:17:42;7.10;99.90
40696;DHT22;40425;51.102;17.208;2023-01-15T16:22:56;7.00;99.90
40696;DHT22;40425;51.102;17.208;2023-01-15T16:27:59;7.10;99.90
40696;DHT22;40425;51.102;17.208;2023-01-15T16:33:05;7.00;99.90
40696;DHT22;40425;51.102;17.208;2023-01-15T16:38:18;7.00;99.90
40696;DHT22;40425;51.102;17.208;2023-01-15T16:43:22;7.00;99.90
40696;DHT22;40425;51.102;17.208;2023-01-15T16:48:27;7.10;99.90
40696;DHT22;40425;51.102;17.208;2023-01-15T16:53:37;7.00;99.90
40696;DHT22;40425;51.102;17.208;2023-01-15T16:58:39;7.00;99.90
40696;DHT22;40425;51.102;17.208;2023-01-15T17:03:40;6.90;99.90
40696;DHT22;40425;51.102;17.208;2023-01-15T17:08:49;6.80;99.90
40696;DHT22;40425;51.102;17.208;2023-01-15T17:13:50;6.80;99.90
40696;DHT22;40425;51.102;17.208;2023-01-15T17:18:51;6.70;99.90
40696;DHT22;40425;51.102;17.208;2023-01-15T17:23:53;6.70;99.90
40696;DHT22;40425;51.102;17.208;2023-01-15T17:28:54;6.60;99.90
40696;DHT22;40425;51.102;17.208;2023-01-15T17:33:56;6.60;99.90
40696;DHT22;40425;51.102;17.208;2023-01-15T17:38:57;6.60;99.90
40696;DHT22;40425;51.102;17.208;2023-01-15T17:43:58;6.50;99.90
40696;DHT22;40425;51.102;17.208;2023-01-15T17:48:59;6.40;99.90
40696;DHT22;40425;51.102;17.208;2023-01-15T17:54:00;6.50;99.90
40696;DHT22;40425;51.102;17.208;2023-01-15T17:59:01;6.60;99.90
40696;DHT22;40425;51.102;17.208;2023-01-15T18:04:45;6.60;99.90
40696;DHT22;40425;51.102;17.208;2023-01-15T18:10:11;6.60;99.90
40696;DHT22;40425;51.102;17.208;2023-01-15T18:15:18;6.60;99.90
40696;DHT22;40425;51.102;17.208;2023-01-15T18:20:19;6.60;99.90
40696;DHT22;40425;51.102;17.208;2023-01-15T18:25:20;6.60;99.90
40696;DHT22;40425;51.102;17.208;2023-01-15T18:30:21;6.50;99.90
40696;DHT22;40425;51.102;17.208;2023-01-15T18:35:22;6.40;99.90
40696;DHT22;40425;51.102;17.208;2023-01-15T18:40:23;6.40;99.90
40696;DHT22;40425;51.102;17.208;2023-01-15T18:45:30;6.30;99.90
40696;DHT22;40425;51.102;17.208;2023-01-15T18:50:49;6.30;99.90
40696;DHT22;40425;51.102;17.208;2023-01-15T18:55:50;6.30;99.90
40696;DHT22;40425;51.102;17.208;2023-01-15T19:00:51;6.20;99.90
40696;DHT22;40425;51.102;17.208;2023-01-15T19:05:51;6.20;99.90
40696;DHT22;40425;51.102;17.208;2023-01-15T19:10:52;6.30;99.90
40696;DHT22;40425;51.102;17.208;2023-01-15T19:15:53;6.20;99.90
40696;DHT22;40425;51.102;17.208;2023-01-15T19:21:12;6.20;99.90
40696;DHT22;40425;51.102;17.208;2023-01-15T19:26:13;6.20;99.90
40696;DHT22;40425;51.102;17.208;2023-01-15T19:31:15;6.20;99.90
40696;DHT22;40425;51.102;17.208;2023-01-15T19:36:35;6.10;99.90
40696;DHT22;40425;51.102;17.208;2023-01-15T19:41:37;6.10;99.90
40696;DHT22;40425;51.102;17.208;2023-01-15T19:46:56;6.20;99.90
40696;DHT22;40425;51.102;17.208;2023-01-15T19:52:15;6.10;99.90
40696;DHT22;40425;51.102;17.208;2023-01-15T19:57:35;6.20;99.90
40696;DHT22;40425;51.102;17.208;2023-01-15T20:02:36;6.20;99.90
40696;DHT22;40425;51.102;17.208;2023-01-15T20:07:37;6.20;99.90
40696;DHT22;40425;51.102;17.208;2023-01-15T20:12:38;6.20;99.90
40696;DHT22;40425;51.102;17.208;2023-01-15T20:17:58;6.20;99.90
40696;DHT22;40425;51.102;17.208;2023-01-15T20:22:59;6.30;99.90
40696;DHT22;40425;51.102;17.208;2023-01-15T20:28:01;6.10;99.90
40696;DHT22;40425;51.102;17.208;2023-01-15T20:33:01;5.90;99.90
40696;DHT22;40425;51.102;17.208;2023-01-15T20:38:03;5.80;99.90
40696;DHT22;40425;51.102;17.208;2023-01-15T20:43:04;5.80;99.90
40696;DHT22;40425;51.102;17.208;2023-01-15T20:48:23;5.80;99.90
40696;DHT22;40425;51.102;17.208;2023-01-15T20:53:42;5.80;99.90
40696;DHT22;40425;51.102;17.208;2023-01-15T20:58:44;5.80;99.90
40696;DHT22;40425;51.102;17.208;2023-01-15T21:03:45;5.80;99.90
40696;DHT22;40425;51.102;17.208;2023-01-15T21:08:47;5.80;99.90
40696;DHT22;40425;51.102;17.208;2023-01-15T21:13:48;5.70;99.90
40696;DHT22;40425;51.102;17.208;2023-01-15T21:18:49;5.70;99.90
40696;DHT22;40425;51.102;17.208;2023-01-15T21:23:51;5.50;99.90
40696;DHT22;40425;51.102;17.208;2023-01-15T21:28:53;5.40;99.90
40696;DHT22;40425;51.102;17.208;2023-01-15T21:33:54;5.30;99.90
40696;DHT22;40425;51.102;17.208;2023-01-15T21:38:56;5.20;99.90
40696;DHT22;40425;51.102;17.208;2023-01-15T21:43:58;5.20;99.90
40696;DHT22;40425;51.102;17.208;2023-01-15T21:49:17;5.10;99.90
40696;DHT22;40425;51.102;17.208;2023-01-15T21:54:18;5.00;99.90
40696;DHT22;40425;51.102;17.208;2023-01-15T21:59:20;4.90;99.90
40696;DHT22;40425;51.102;17.208;2023-01-15T22:04:21;4.80;99.90
40696;DHT22;40425;51.102;17.208;2023-01-15T22:09:24;4.70;99.90
40696;DHT22;40425;51.102;17.208;2023-01-15T22:14:29;4.60;99.90
40696;DHT22;40425;51.102;17.208;2023-01-15T22:19:31;4.50;99.90
40696;DHT22;40425;51.102;17.208;2023-01-15T22:24:33;4.50;99.90
40696;DHT22;40425;51.102;17.208;2023-01-15T22:29:39;4.40;99.90
40696;DHT22;40425;51.102;17.208;2023-01-15T22:34:40;4.30;99.90
40696;DHT22;40425;51.102;17.208;2023-01-15T22:39:41;4.20;99.90
40696;DHT22;40425;51.102;17.208;2023-01-15T22:44:42;4.20;99.90
40696;DHT22;40425;51.102;17.208;2023-01-15T22:49:44;4.00;99.90
40696;DHT22;40425;51.102;17.208;2023-01-15T22:54:46;4.00;99.90
40696;DHT22;40425;51.102;17.208;2023-01-15T22:59:47;3.90;99.90
40696;DHT22;40425;51.102;17.208;2023-01-15T23:04:49;3.80;99.90
40696;DHT22;40425;51.102;17.208;2023-01-15T23:09:51;3.80;99.90
40696;DHT22;40425;51.102;17.208;2023-01-15T23:14:52;3.80;99.90
40696;DHT22;40425;51.102;17.208;2023-01-15T23:19:53;3.80;99.90
40696;DHT22;40425;51.102;17.208;2023-01-15T23:24:54;3.70;99.90
40696;DHT22;40425;51.102;17.208;2023-01-15T23:29:54;3.60;99.90
40696;DHT22;40425;51.102;17.208;2023-01-15T23:34:55;3.60;99.90
40696;DHT22;40425;51.102;17.208;2023-01-15T23:39:56;3.60;99.90
40696;DHT22;40425;51.102;17.208;2023-01-15T23:44:57;3.60;99.90
40696;DHT22;40425;51.102;17.208;2023-01-15T23:50:17;3.60;99.90
40696;DHT22;40425;51.102;17.208;2023-01-15T23:55:17;3.60;99.90
